sensor_id;sensor_type;location;lat;lon;timestamp;pressure;altitude;pressure_sealevel;temperature;humidity
60845;BME280;47984;51.250;6.712;2022-11-11T00:01:57;102694.88;;;7.64;53.96
60845;BME280;47984;51.250;6.712;2022-11-11T00:04:26;102699.13;;;7.58;54.51
60845;BME280;47984;51.250;6.712;2022-11-11T00:06:55;102702.56;;;7.59;54.00
60845;BME280;47984;51.250;6.712;2022-11-11T00:09:27;102721.53;;;7.56;54.25
60845;BME280;47984;51.250;6.712;2022-11-11T00:12:15;102723.22;;;7.54;54.35
60845;BME280;47984;51.250;6.712;2022-11-11T00:14:45;102725.81;;;7.54;54.33
60845;BME280;47984;51.250;6.712;2022-11-11T00:17:15;102712.75;;;7.47;54.23
60845;BME280;47984;51.250;6.712;2022-11-11T00:20:01;102722.28;;;7.49;54.03
60845;BME280;47984;51.250;6.712;2022-11-11T00:22:51;102725.69;;;7.47;54.46
60845;BME280;47984;51.250;6.712;2022-11-11T00:25:39;102723.09;;;7.45;54.38
60845;BME280;47984;51.250;6.712;2022-11-11T00:28:07;102720.50;;;7.45;53.97
60845;BME280;47984;51.250;6.712;2022-11-11T00:30:35;102712.69;;;7.44;54.53
60845;BME280;47984;51.250;6.712;2022-11-11T00:33:02;102712.66;;;7.39;54.47
60845;BME280;47984;51.250;6.712;2022-11-11T00:35:34;102704.84;;;7.36;54.48
60845;BME280;47984;51.250;6.712;2022-11-11T00:38:35;102707.47;;;7.39;53.99
60845;BME280;47984;51.250;6.712;2022-11-11T00:41:25;102706.53;;;7.34;54.38
60845;BME280;47984;51.250;6.712;2022-11-11T00:43:59;102700.47;;;7.32;54.37
60845;BME280;47984;51.250;6.712;2022-11-11T00:46:30;102707.38;;;7.34;54.31
60845;BME280;47984;51.250;6.712;2022-11-11T00:49:16;102716.00;;;7.33;54.39
60845;BME280;47984;51.250;6.712;2022-11-11T00:52:04;102693.47;;;7.26;54.48
60845;BME280;47984;51.250;6.712;2022-11-11T00:54:32;102709.00;;;7.28;54.41
60845;BME280;47984;51.250;6.712;2022-11-11T00:57:01;102711.59;;;7.26;54.30
60845;BME280;47984;51.250;6.712;2022-11-11T00:59:29;102713.31;;;7.26;54.53
60845;BME280;47984;51.250;6.712;2022-11-11T01:01:59;102721.81;;;7.20;54.48
60845;BME280;47984;51.250;6.712;2022-11-11T01:04:28;102722.78;;;7.25;54.59
60845;BME280;47984;51.250;6.712;2022-11-11T01:06:59;102724.34;;;7.17;54.38
60845;BME280;47984;51.250;6.712;2022-11-11T01:09:30;102733.94;;;7.23;54.15
60845;BME280;47984;51.250;6.712;2022-11-11T01:12:01;102732.13;;;7.19;54.65
60845;BME280;47984;51.250;6.712;2022-11-11T01:14:30;102743.38;;;7.21;54.23
60845;BME280;47984;51.250;6.712;2022-11-11T01:16:58;102737.25;;;7.15;54.59
60845;BME280;47984;51.250;6.712;2022-11-11T01:19:29;102738.16;;;7.18;54.66
60845;BME280;47984;51.250;6.712;2022-11-11T01:22:05;102733.78;;;7.15;54.36
60845;BME280;47984;51.250;6.712;2022-11-11T01:24:33;102732.88;;;7.11;54.36
60845;BME280;47984;51.250;6.712;2022-11-11T01:27:05;102733.75;;;7.10;54.48
60845;BME280;47984;51.250;6.712;2022-11-11T01:29:32;102730.25;;;7.08;54.59
60845;BME280;47984;51.250;6.712;2022-11-11T01:32:01;102724.16;;;7.05;54.32
60845;BME280;47984;51.250;6.712;2022-11-11T01:34:31;102712.84;;;6.98;54.68
60845;BME280;47984;51.250;6.712;2022-11-11T01:37:01;102734.50;;;7.05;54.47
60845;BME280;47984;51.250;6.712;2022-11-11T01:39:30;102718.00;;;6.98;54.74
60845;BME280;47984;51.250;6.712;2022-11-11T01:42:02;102717.09;;;6.96;54.03
60845;BME280;47984;51.250;6.712;2022-11-11T01:44:41;102731.03;;;7.04;54.51
60845;BME280;47984;51.250;6.712;2022-11-11T01:47:19;102738.81;;;7.04;54.42
60845;BME280;47984;51.250;6.712;2022-11-11T01:49:55;102720.53;;;6.95;54.70
60845;BME280;47984;51.250;6.712;2022-11-11T01:52:31;102733.44;;;6.93;54.21
60845;BME280;47984;51.250;6.712;2022-11-11T01:55:26;102726.53;;;6.92;54.37
60845;BME280;47984;51.250;6.712;2022-11-11T01:58:04;102745.53;;;6.95;54.43
60845;BME280;47984;51.250;6.712;2022-11-11T02:00:33;102743.00;;;6.98;54.51
60845;BME280;47984;51.250;6.712;2022-11-11T02:03:08;102724.75;;;6.88;54.56
60845;BME280;47984;51.250;6.712;2022-11-11T02:05:37;102741.19;;;6.92;54.41
60845;BME280;47984;51.250;6.712;2022-11-11T02:08:32;102753.25;;;6.93;54.68
60845;BME280;47984;51.250;6.712;2022-11-11T02:11:17;102728.91;;;6.82;54.21
60845;BME280;47984;51.250;6.712;2022-11-11T02:14:04;102728.91;;;6.82;54.38
60845;BME280;47984;51.250;6.712;2022-11-11T02:16:52;102735.00;;;6.84;54.37
60845;BME280;47984;51.250;6.712;2022-11-11T02:19:34;102740.97;;;6.81;54.22
60845;BME280;47984;51.250;6.712;2022-11-11T02:25:16;102734.88;;;6.78;54.63
60845;BME280;47984;51.250;6.712;2022-11-11T02:27:51;102726.16;;;6.73;54.59
60845;BME280;47984;51.250;6.712;2022-11-11T02:30:20;102738.38;;;6.80;54.26
60845;BME280;47984;51.250;6.712;2022-11-11T02:32:54;102745.28;;;6.81;54.67
60845;BME280;47984;51.250;6.712;2022-11-11T02:35:30;102723.56;;;6.73;54.24
60845;BME280;47984;51.250;6.712;2022-11-11T02:38:07;102718.34;;;6.68;54.64
60845;BME280;47984;51.250;6.712;2022-11-11T02:40:45;102743.44;;;6.74;54.70
60845;BME280;47984;51.250;6.712;2022-11-11T02:43:33;102725.19;;;6.64;54.48
60845;BME280;47984;51.250;6.712;2022-11-11T02:46:06;102735.63;;;6.72;54.39
60845;BME280;47984;51.250;6.712;2022-11-11T02:48:38;102732.19;;;6.70;54.58
60845;BME280;47984;51.250;6.712;2022-11-11T02:51:08;102732.19;;;6.70;54.34
60845;BME280;47984;51.250;6.712;2022-11-11T02:53:40;102743.31;;;6.67;55.12
60845;BME280;47984;51.250;6.712;2022-11-11T02:56:07;102750.28;;;6.70;54.75
60845;BME280;47984;51.250;6.712;2022-11-11T02:58:38;102753.69;;;6.69;54.48
60845;BME280;47984;51.250;6.712;2022-11-11T03:01:11;102746.63;;;6.60;54.53
60845;BME280;47984;51.250;6.712;2022-11-11T03:03:39;102749.31;;;6.65;54.41
60845;BME280;47984;51.250;6.712;2022-11-11T03:06:07;102739.72;;;6.59;54.63
60845;BME280;47984;51.250;6.712;2022-11-11T03:08:35;102737.19;;;6.62;54.67
60845;BME280;47984;51.250;6.712;2022-11-11T03:11:05;102728.44;;;6.54;54.64
60845;BME280;47984;51.250;6.712;2022-11-11T03:13:33;102721.56;;;6.55;54.28
60845;BME280;47984;51.250;6.712;2022-11-11T03:16:03;102734.50;;;6.56;54.86
60845;BME280;47984;51.250;6.712;2022-11-11T03:18:33;102737.06;;;6.55;54.70
60845;BME280;47984;51.250;6.712;2022-11-11T03:21:00;102720.56;;;6.48;54.95
60845;BME280;47984;51.250;6.712;2022-11-11T03:23:52;102735.28;;;6.52;54.76
60845;BME280;47984;51.250;6.712;2022-11-11T03:26:24;102736.03;;;6.46;54.82
60845;BME280;47984;51.250;6.712;2022-11-11T03:28:53;102738.66;;;6.48;54.97
60845;BME280;47984;51.250;6.712;2022-11-11T03:31:24;102731.66;;;6.44;54.45
60845;BME280;47984;51.250;6.712;2022-11-11T03:33:51;102719.47;;;6.37;54.34
60845;BME280;47984;51.250;6.712;2022-11-11T03:36:22;102731.66;;;6.42;54.34
60845;BME280;47984;51.250;6.712;2022-11-11T03:39:09;102725.63;;;6.43;54.34
60845;BME280;47984;51.250;6.712;2022-11-11T03:41:40;102727.34;;;6.43;54.56
60845;BME280;47984;51.250;6.712;2022-11-11T03:44:09;102716.09;;;6.39;54.53
60845;BME280;47984;51.250;6.712;2022-11-11T03:46:39;102719.53;;;6.40;54.47
60845;BME280;47984;51.250;6.712;2022-11-11T03:49:05;102721.25;;;6.39;54.96
60845;BME280;47984;51.250;6.712;2022-11-11T03:51:34;102716.84;;;6.34;54.96
60845;BME280;47984;51.250;6.712;2022-11-11T03:54:02;102724.59;;;6.34;54.53
60845;BME280;47984;51.250;6.712;2022-11-11T03:56:31;102717.66;;;6.31;54.85
60845;BME280;47984;51.250;6.712;2022-11-11T03:59:00;102715.06;;;6.31;54.55
60845;BME280;47984;51.250;6.712;2022-11-11T04:01:29;102717.69;;;6.33;54.81
60845;BME280;47984;51.250;6.712;2022-11-11T04:04:14;102721.91;;;6.29;54.97
60845;BME280;47984;51.250;6.712;2022-11-11T04:07:01;102710.63;;;6.24;54.82
60845;BME280;47984;51.250;6.712;2022-11-11T04:09:46;102717.44;;;6.20;54.91
60845;BME280;47984;51.250;6.712;2022-11-11T04:12:34;102738.31;;;6.30;54.98
60845;BME280;47984;51.250;6.712;2022-11-11T04:15:47;102726.06;;;6.22;54.73
60845;BME280;47984;51.250;6.712;2022-11-11T04:18:37;102732.03;;;6.20;54.88
60845;BME280;47984;51.250;6.712;2022-11-11T04:21:24;102748.44;;;6.20;55.05
60845;BME280;47984;51.250;6.712;2022-11-11T04:24:32;102757.94;;;6.21;54.76
60845;BME280;47984;51.250;6.712;2022-11-11T04:27:20;102763.03;;;6.20;54.57
60845;BME280;47984;51.250;6.712;2022-11-11T04:29:47;102737.06;;;6.12;54.94
60845;BME280;47984;51.250;6.712;2022-11-11T04:32:18;102749.19;;;6.16;54.59
60845;BME280;47984;51.250;6.712;2022-11-11T04:35:25;102753.50;;;6.14;55.06
60845;BME280;47984;51.250;6.712;2022-11-11T04:37:53;102756.09;;;6.16;55.00
60845;BME280;47984;51.250;6.712;2022-11-11T04:40:40;102755.22;;;6.15;54.47
60845;BME280;47984;51.250;6.712;2022-11-11T04:43:31;102749.13;;;6.13;54.84
60845;BME280;47984;51.250;6.712;2022-11-11T04:46:19;102749.13;;;6.12;54.86
60845;BME280;47984;51.250;6.712;2022-11-11T04:48:48;102760.28;;;6.11;54.81
60845;BME280;47984;51.250;6.712;2022-11-11T04:51:15;102761.16;;;6.11;54.66
60845;BME280;47984;51.250;6.712;2022-11-11T04:53:41;102757.69;;;6.11;54.68
60845;BME280;47984;51.250;6.712;2022-11-11T04:56:08;102759.41;;;6.10;54.66
60845;BME280;47984;51.250;6.712;2022-11-11T04:58:54;102756.81;;;6.09;54.83
60845;BME280;47984;51.250;6.712;2022-11-11T05:01:48;102755.94;;;6.08;54.52
60845;BME280;47984;51.250;6.712;2022-11-11T05:04:37;102743.84;;;6.07;54.92
60845;BME280;47984;51.250;6.712;2022-11-11T05:07:17;102742.13;;;6.08;54.63
60845;BME280;47984;51.250;6.712;2022-11-11T05:10:08;102738.69;;;6.07;54.55
60845;BME280;47984;51.250;6.712;2022-11-11T05:12:35;102733.44;;;6.04;54.82
60845;BME280;47984;51.250;6.712;2022-11-11T05:15:02;102743.81;;;6.06;54.98
60845;BME280;47984;51.250;6.712;2022-11-11T05:17:48;102739.47;;;6.05;54.77
60845;BME280;47984;51.250;6.712;2022-11-11T05:20:33;102739.47;;;6.05;55.15
60845;BME280;47984;51.250;6.712;2022-11-11T05:23:19;102742.91;;;6.04;54.93
60845;BME280;47984;51.250;6.712;2022-11-11T05:25:54;102742.03;;;6.03;55.29
60845;BME280;47984;51.250;6.712;2022-11-11T05:28:22;102746.34;;;6.03;54.54
60845;BME280;47984;51.250;6.712;2022-11-11T05:30:49;102748.88;;;6.01;54.98
60845;BME280;47984;51.250;6.712;2022-11-11T05:33:16;102753.22;;;6.02;54.89
60845;BME280;47984;51.250;6.712;2022-11-11T05:35:43;102760.97;;;6.02;54.46
60845;BME280;47984;51.250;6.712;2022-11-11T05:38:10;102757.47;;;6.00;55.13
60845;BME280;47984;51.250;6.712;2022-11-11T05:40:46;102761.72;;;5.98;54.70
60845;BME280;47984;51.250;6.712;2022-11-11T05:43:13;102770.38;;;5.98;55.05
60845;BME280;47984;51.250;6.712;2022-11-11T05:45:40;102778.06;;;5.97;54.97
60845;BME280;47984;51.250;6.712;2022-11-11T05:48:08;102765.94;;;5.93;54.70
60845;BME280;47984;51.250;6.712;2022-11-11T05:50:35;102779.72;;;5.95;55.14
60845;BME280;47984;51.250;6.712;2022-11-11T05:53:04;102769.34;;;5.92;55.19
60845;BME280;47984;51.250;6.712;2022-11-11T05:55:30;102769.34;;;5.92;54.84
60845;BME280;47984;51.250;6.712;2022-11-11T05:57:57;102771.91;;;5.90;54.72
60845;BME280;47984;51.250;6.712;2022-11-11T06:00:24;102766.75;;;5.90;54.79
60845;BME280;47984;51.250;6.712;2022-11-11T06:02:51;102773.56;;;5.88;54.78
60845;BME280;47984;51.250;6.712;2022-11-11T06:05:18;102777.88;;;5.88;54.69
60845;BME280;47984;51.250;6.712;2022-11-11T06:07:45;102783.00;;;5.86;54.76
60845;BME280;47984;51.250;6.712;2022-11-11T06:10:12;102789.03;;;5.87;54.97
60845;BME280;47984;51.250;6.712;2022-11-11T06:12:58;102789.91;;;5.87;54.89
60845;BME280;47984;51.250;6.712;2022-11-11T06:15:31;102783.03;;;5.88;54.67
60845;BME280;47984;51.250;6.712;2022-11-11T06:17:58;102788.13;;;5.85;55.08
60845;BME280;47984;51.250;6.712;2022-11-11T06:20:26;102780.25;;;5.80;54.81
60845;BME280;47984;51.250;6.712;2022-11-11T06:22:53;102785.44;;;5.82;54.72
60845;BME280;47984;51.250;6.712;2022-11-11T06:25:27;102794.09;;;5.84;55.14
60845;BME280;47984;51.250;6.712;2022-11-11T06:28:14;102790.53;;;5.78;55.19
60845;BME280;47984;51.250;6.712;2022-11-11T06:30:42;102790.59;;;5.80;55.14
60845;BME280;47984;51.250;6.712;2022-11-11T06:33:17;102801.72;;;5.79;55.17
60845;BME280;47984;51.250;6.712;2022-11-11T06:35:44;102797.44;;;5.80;54.74
60845;BME280;47984;51.250;6.712;2022-11-11T06:38:11;102800.00;;;5.80;54.81
60845;BME280;47984;51.250;6.712;2022-11-11T06:40:38;102801.66;;;5.76;54.80
60845;BME280;47984;51.250;6.712;2022-11-11T06:43:05;102797.34;;;5.75;55.04
60845;BME280;47984;51.250;6.712;2022-11-11T06:45:32;102816.34;;;5.77;55.36
60845;BME280;47984;51.250;6.712;2022-11-11T06:48:05;102809.31;;;5.73;55.00
60845;BME280;47984;51.250;6.712;2022-11-11T06:50:32;102817.13;;;5.74;55.30
60845;BME280;47984;51.250;6.712;2022-11-11T06:53:14;102825.75;;;5.76;55.21
60845;BME280;47984;51.250;6.712;2022-11-11T06:55:41;102833.47;;;5.75;55.10
60845;BME280;47984;51.250;6.712;2022-11-11T06:58:16;102828.25;;;5.73;55.01
60845;BME280;47984;51.250;6.712;2022-11-11T07:00:45;102824.78;;;5.71;55.20
60845;BME280;47984;51.250;6.712;2022-11-11T07:03:14;102832.63;;;5.76;54.99
60845;BME280;47984;51.250;6.712;2022-11-11T07:05:44;102832.56;;;5.73;55.03
60845;BME280;47984;51.250;6.712;2022-11-11T07:08:13;102833.41;;;5.72;54.93
60845;BME280;47984;51.250;6.712;2022-11-11T07:10:44;102829.03;;;5.69;54.97
60845;BME280;47984;51.250;6.712;2022-11-11T07:13:11;102842.06;;;5.74;55.40
60845;BME280;47984;51.250;6.712;2022-11-11T07:15:40;102840.31;;;5.73;55.24
60845;BME280;47984;51.250;6.712;2022-11-11T07:18:07;102839.41;;;5.71;55.12
60845;BME280;47984;51.250;6.712;2022-11-11T07:20:34;102833.28;;;5.67;55.28
60845;BME280;47984;51.250;6.712;2022-11-11T07:23:01;102837.69;;;5.71;54.81
60845;BME280;47984;51.250;6.712;2022-11-11T07:25:29;102842.00;;;5.71;55.21
60845;BME280;47984;51.250;6.712;2022-11-11T07:27:56;102853.19;;;5.71;55.09
60845;BME280;47984;51.250;6.712;2022-11-11T07:30:25;102844.50;;;5.68;55.30
60845;BME280;47984;51.250;6.712;2022-11-11T07:32:57;102854.00;;;5.70;55.37
60845;BME280;47984;51.250;6.712;2022-11-11T07:35:24;102854.06;;;5.72;55.06
60845;BME280;47984;51.250;6.712;2022-11-11T07:37:51;102854.94;;;5.72;54.88
60845;BME280;47984;51.250;6.712;2022-11-11T07:40:19;102854.06;;;5.72;55.36
60845;BME280;47984;51.250;6.712;2022-11-11T07:42:46;102850.59;;;5.71;55.43
60845;BME280;47984;51.250;6.712;2022-11-11T07:45:14;102854.00;;;5.70;55.22
60845;BME280;47984;51.250;6.712;2022-11-11T07:47:42;102851.34;;;5.67;54.89
60845;BME280;47984;51.250;6.712;2022-11-11T07:50:10;102855.69;;;5.68;55.13
60845;BME280;47984;51.250;6.712;2022-11-11T07:52:47;102853.94;;;5.67;55.50
60845;BME280;47984;51.250;6.712;2022-11-11T07:55:14;102861.69;;;5.67;55.49
60845;BME280;47984;51.250;6.712;2022-11-11T07:57:41;102870.25;;;5.66;55.38
60845;BME280;47984;51.250;6.712;2022-11-11T08:00:09;102866.84;;;5.67;55.28
60845;BME280;47984;51.250;6.712;2022-11-11T08:02:36;102873.75;;;5.68;55.43
60845;BME280;47984;51.250;6.712;2022-11-11T08:05:03;102874.66;;;5.70;55.18
60845;BME280;47984;51.250;6.712;2022-11-11T08:07:35;102879.88;;;5.72;55.10
60845;BME280;47984;51.250;6.712;2022-11-11T08:10:03;102877.31;;;5.73;54.92
60845;BME280;47984;51.250;6.712;2022-11-11T08:12:30;102875.59;;;5.72;55.56
60845;BME280;47984;51.250;6.712;2022-11-11T08:15:15;102872.16;;;5.73;55.32
60845;BME280;47984;51.250;6.712;2022-11-11T08:17:42;102856.59;;;5.70;55.52
60845;BME280;47984;51.250;6.712;2022-11-11T08:20:10;102861.03;;;5.76;55.27
60845;BME280;47984;51.250;6.712;2022-11-11T08:22:38;102874.00;;;5.77;55.21
60845;BME280;47984;51.250;6.712;2022-11-11T08:25:10;102872.28;;;5.78;55.83
60845;BME280;47984;51.250;6.712;2022-11-11T08:27:40;102863.66;;;5.77;55.43
60845;BME280;47984;51.250;6.712;2022-11-11T08:30:08;102873.22;;;5.82;55.75
60845;BME280;47984;51.250;6.712;2022-11-11T08:32:35;102868.91;;;5.81;55.74
60845;BME280;47984;51.250;6.712;2022-11-11T08:35:03;102877.59;;;5.84;55.78
60845;BME280;47984;51.250;6.712;2022-11-11T08:37:29;102875.97;;;5.86;55.16
60845;BME280;47984;51.250;6.712;2022-11-11T08:39:56;102880.34;;;5.90;55.81
60845;BME280;47984;51.250;6.712;2022-11-11T08:42:23;102872.59;;;5.90;55.71
60845;BME280;47984;51.250;6.712;2022-11-11T08:44:50;102869.16;;;5.90;55.29
60845;BME280;47984;51.250;6.712;2022-11-11T08:47:17;102876.19;;;5.95;55.75
60845;BME280;47984;51.250;6.712;2022-11-11T08:49:46;102878.00;;;6.01;55.42
60845;BME280;47984;51.250;6.712;2022-11-11T08:52:15;102881.50;;;6.03;55.20
60845;BME280;47984;51.250;6.712;2022-11-11T08:54:43;102880.72;;;6.06;55.63
60845;BME280;47984;51.250;6.712;2022-11-11T08:57:10;102876.41;;;6.06;55.53
60845;BME280;47984;51.250;6.712;2022-11-11T08:59:36;102884.31;;;6.12;55.49
60845;BME280;47984;51.250;6.712;2022-11-11T09:02:03;102880.06;;;6.14;55.59
60845;BME280;47984;51.250;6.712;2022-11-11T09:04:30;102881.81;;;6.17;55.31
60845;BME280;47984;51.250;6.712;2022-11-11T09:07:11;102884.53;;;6.21;55.65
60845;BME280;47984;51.250;6.712;2022-11-11T09:09:38;102888.03;;;6.25;55.73
60845;BME280;47984;51.250;6.712;2022-11-11T09:12:05;102888.16;;;6.30;55.33
60845;BME280;47984;51.250;6.712;2022-11-11T09:14:37;102884.75;;;6.32;55.48
60845;BME280;47984;51.250;6.712;2022-11-11T09:17:05;102885.72;;;6.36;55.49
60845;BME280;47984;51.250;6.712;2022-11-11T09:19:34;102880.69;;;6.42;55.31
60845;BME280;47984;51.250;6.712;2022-11-11T09:22:02;102888.53;;;6.46;55.30
60845;BME280;47984;51.250;6.712;2022-11-11T09:24:28;102883.47;;;6.51;55.58
60845;BME280;47984;51.250;6.712;2022-11-11T09:26:55;102882.63;;;6.52;55.44
60845;BME280;47984;51.250;6.712;2022-11-11T09:29:22;102881.91;;;6.59;55.85
60845;BME280;47984;51.250;6.712;2022-11-11T09:31:49;102891.44;;;6.63;55.79
60845;BME280;47984;51.250;6.712;2022-11-11T09:34:16;102886.41;;;6.69;55.40
60845;BME280;47984;51.250;6.712;2022-11-11T09:36:43;102883.00;;;6.72;55.49
60845;BME280;47984;51.250;6.712;2022-11-11T09:39:10;102886.53;;;6.76;55.51
60845;BME280;47984;51.250;6.712;2022-11-11T09:41:57;102893.59;;;6.83;55.33
60845;BME280;47984;51.250;6.712;2022-11-11T09:45:10;102898.03;;;6.90;55.25
60845;BME280;47984;51.250;6.712;2022-11-11T09:47:52;102889.50;;;6.94;55.20
60845;BME280;47984;51.250;6.712;2022-11-11T09:50:34;102884.38;;;6.97;55.67
60845;BME280;47984;51.250;6.712;2022-11-11T09:53:06;102885.28;;;6.99;55.46
60845;BME280;47984;51.250;6.712;2022-11-11T09:55:46;102891.44;;;7.06;55.49
60845;BME280;47984;51.250;6.712;2022-11-11T09:58:21;102888.97;;;7.10;55.30
60845;BME280;47984;51.250;6.712;2022-11-11T10:00:59;102896.78;;;7.15;55.46
60845;BME280;47984;51.250;6.712;2022-11-11T10:03:28;102890.81;;;7.19;55.48
60845;BME280;47984;51.250;6.712;2022-11-11T10:06:08;102890.06;;;7.23;55.25
60845;BME280;47984;51.250;6.712;2022-11-11T10:08:47;102891.88;;;7.27;55.62
60845;BME280;47984;51.250;6.712;2022-11-11T10:11:27;102895.38;;;7.29;55.44
60845;BME280;47984;51.250;6.712;2022-11-11T10:13:57;102895.50;;;7.35;55.37
60845;BME280;47984;51.250;6.712;2022-11-11T10:19:03;102896.47;;;7.42;55.41
60845;BME280;47984;51.250;6.712;2022-11-11T10:21:43;102899.13;;;7.45;55.14
60845;BME280;47984;51.250;6.712;2022-11-11T10:24:36;102900.09;;;7.50;55.39
60845;BME280;47984;51.250;6.712;2022-11-11T10:27:22;102907.03;;;7.54;55.46
60845;BME280;47984;51.250;6.712;2022-11-11T10:29:50;102907.09;;;7.57;55.72
60845;BME280;47984;51.250;6.712;2022-11-11T10:32:24;102901.09;;;7.60;55.05
60845;BME280;47984;51.250;6.712;2022-11-11T10:34:58;102897.66;;;7.61;55.50
60845;BME280;47984;51.250;6.712;2022-11-11T10:37:37;102896.91;;;7.67;55.26
60845;BME280;47984;51.250;6.712;2022-11-11T10:40:19;102897.78;;;7.69;55.75
60845;BME280;47984;51.250;6.712;2022-11-11T10:42:47;102910.78;;;7.72;55.36
60845;BME280;47984;51.250;6.712;2022-11-11T10:47:55;102900.53;;;7.78;55.54
60845;BME280;47984;51.250;6.712;2022-11-11T10:50:31;102907.47;;;7.80;55.43
60845;BME280;47984;51.250;6.712;2022-11-11T10:55:50;102911.03;;;7.87;55.23
60845;BME280;47984;51.250;6.712;2022-11-11T11:00:51;102903.34;;;7.93;55.40
60845;BME280;47984;51.250;6.712;2022-11-11T11:03:21;102912.94;;;7.97;55.29
60845;BME280;47984;51.250;6.712;2022-11-11T11:05:56;102909.53;;;8.01;55.82
60845;BME280;47984;51.250;6.712;2022-11-11T11:08:30;102912.13;;;8.01;55.16
60845;BME280;47984;51.250;6.712;2022-11-11T11:11:06;102906.13;;;8.05;55.13
60845;BME280;47984;51.250;6.712;2022-11-11T11:13:44;102907.88;;;8.05;55.21
60845;BME280;47984;51.250;6.712;2022-11-11T11:16:16;102905.31;;;8.08;55.61
60845;BME280;47984;51.250;6.712;2022-11-11T11:19:14;102910.53;;;8.10;55.36
60845;BME280;47984;51.250;6.712;2022-11-11T11:21:53;102905.38;;;8.11;55.20
60845;BME280;47984;51.250;6.712;2022-11-11T11:24:23;102907.13;;;8.14;55.13
60845;BME280;47984;51.250;6.712;2022-11-11T11:26:53;102899.38;;;8.15;55.45
60845;BME280;47984;51.250;6.712;2022-11-11T11:31:53;102905.47;;;8.17;55.46
60845;BME280;47984;51.250;6.712;2022-11-11T11:34:20;102914.19;;;8.22;55.30
60845;BME280;47984;51.250;6.712;2022-11-11T11:36:59;102915.06;;;8.24;55.53
60845;BME280;47984;51.250;6.712;2022-11-11T11:39:34;102904.72;;;8.26;55.36
60845;BME280;47984;51.250;6.712;2022-11-11T11:42:01;102904.78;;;8.29;55.42
60845;BME280;47984;51.250;6.712;2022-11-11T11:44:36;102896.13;;;8.30;55.22
60845;BME280;47984;51.250;6.712;2022-11-11T11:47:56;102899.72;;;8.38;55.17
60845;BME280;47984;51.250;6.712;2022-11-11T11:51:02;102892.84;;;8.42;55.65
60845;BME280;47984;51.250;6.712;2022-11-11T11:56:41;102885.19;;;8.49;55.50
60845;BME280;47984;51.250;6.712;2022-11-11T12:01:52;102873.16;;;8.53;55.41
60845;BME280;47984;51.250;6.712;2022-11-11T12:04:54;102864.56;;;8.57;55.51
60845;BME280;47984;51.250;6.712;2022-11-11T12:07:37;102865.44;;;8.58;55.30
60845;BME280;47984;51.250;6.712;2022-11-11T12:12:58;102856.91;;;8.65;55.44
60845;BME280;47984;51.250;6.712;2022-11-11T12:21:16;102856.13;;;8.76;54.95
60845;BME280;47984;51.250;6.712;2022-11-11T12:23:52;102853.63;;;8.81;55.37
60845;BME280;47984;51.250;6.712;2022-11-11T12:26:46;102849.31;;;8.86;55.50
60845;BME280;47984;51.250;6.712;2022-11-11T12:41:05;102833.06;;;9.01;55.41
60845;BME280;47984;51.250;6.712;2022-11-11T12:49:42;102833.16;;;9.10;55.13
60845;BME280;47984;51.250;6.712;2022-11-11T12:55:26;102817.59;;;9.13;55.21
60845;BME280;47984;51.250;6.712;2022-11-11T12:58:25;102811.59;;;9.14;55.05
60845;BME280;47984;51.250;6.712;2022-11-11T13:04:11;102825.50;;;9.24;55.29
60845;BME280;47984;51.250;6.712;2022-11-11T13:06:52;102822.06;;;9.28;54.93
60845;BME280;47984;51.250;6.712;2022-11-11T13:12:21;102818.63;;;9.32;55.06
60845;BME280;47984;51.250;6.712;2022-11-11T13:14:55;102816.03;;;9.32;55.20
60845;BME280;47984;51.250;6.712;2022-11-11T13:17:26;102816.06;;;9.34;54.98
60845;BME280;47984;51.250;6.712;2022-11-11T13:19:56;102817.84;;;9.39;55.08
60845;BME280;47984;51.250;6.712;2022-11-11T13:22:30;102816.13;;;9.40;54.93
60845;BME280;47984;51.250;6.712;2022-11-11T13:25:00;102820.47;;;9.44;55.33
60845;BME280;47984;51.250;6.712;2022-11-11T13:27:46;102822.22;;;9.48;55.00
60845;BME280;47984;51.250;6.712;2022-11-11T13:30:47;102816.19;;;9.51;55.10
60845;BME280;47984;51.250;6.712;2022-11-11T13:33:19;102818.81;;;9.52;55.15
60845;BME280;47984;51.250;6.712;2022-11-11T13:35:56;102824.00;;;9.54;55.12
60845;BME280;47984;51.250;6.712;2022-11-11T13:38:28;102811.91;;;9.56;55.31
60845;BME280;47984;51.250;6.712;2022-11-11T13:41:00;102811.91;;;9.57;55.02
60845;BME280;47984;51.250;6.712;2022-11-11T13:43:32;102817.16;;;9.62;54.96
60845;BME280;47984;51.250;6.712;2022-11-11T13:46:03;102818.06;;;9.64;54.85
60845;BME280;47984;51.250;6.712;2022-11-11T13:48:37;102810.31;;;9.67;55.33
60845;BME280;47984;51.250;6.712;2022-11-11T13:51:21;102818.97;;;9.67;54.88
60845;BME280;47984;51.250;6.712;2022-11-11T13:53:49;102822.44;;;9.71;55.03
60845;BME280;47984;51.250;6.712;2022-11-11T13:56:45;102815.53;;;9.73;54.86
60845;BME280;47984;51.250;6.712;2022-11-11T13:59:26;102814.69;;;9.74;55.16
60845;BME280;47984;51.250;6.712;2022-11-11T14:12:53;102811.28;;;9.87;55.04
60845;BME280;47984;51.250;6.712;2022-11-11T14:20:46;102804.38;;;9.89;54.96
60845;BME280;47984;51.250;6.712;2022-11-11T14:25:46;102807.00;;;9.93;55.16
60845;BME280;47984;51.250;6.712;2022-11-11T14:28:28;102807.88;;;9.95;55.27
60845;BME280;47984;51.250;6.712;2022-11-11T14:30:58;102806.16;;;9.95;55.05
60845;BME280;47984;51.250;6.712;2022-11-11T14:41:50;102803.56;;;9.98;54.92
60845;BME280;47984;51.250;6.712;2022-11-11T15:00:27;102819.22;;;10.04;55.13
60845;BME280;47984;51.250;6.712;2022-11-11T15:03:23;102808.78;;;10.01;54.74
60845;BME280;47984;51.250;6.712;2022-11-11T15:08:35;102807.94;;;10.05;55.06
60845;BME280;47984;51.250;6.712;2022-11-11T15:25:55;102812.25;;;10.02;54.71
60845;BME280;47984;51.250;6.712;2022-11-11T15:34:24;102818.28;;;9.96;54.55
60845;BME280;47984;51.250;6.712;2022-11-11T15:37:05;102813.06;;;9.95;54.97
60845;BME280;47984;51.250;6.712;2022-11-11T15:42:17;102812.19;;;9.93;54.96
60845;BME280;47984;51.250;6.712;2022-11-11T15:44:45;102813.03;;;9.91;54.80